Terminal Aerodrome Forecast
Issued by NWS

Home | Current Version | Previous Version | Text Only | Print | Product List | Glossary On
Versions: 1 2 3 4 5 6 7 8 9 10 11 12 13 14 15 16 17
735
FTUS43 KMPX 291857 CCA
TAFAXN
TAF COR
KAXN 291857Z 2918/3018 31015G22KT P6SM VCSH OVC035
     FM292100 31015G22KT P6SM OVC040
     FM300100 30010KT P6SM SCT040 BKN100
     FM300900 30011KT P6SM OVC035
     FM301200 31013KT P6SM OVC020=

USA.gov is the U.S. government's official web portal to all federal, state and local government web resources and services.